Montreal Mirabel, Quebec

6:45 AM EDT on August 05, 2015 (GMT -0400)
Montreal International (Mirabel) | | Change Station
CLOSE
Current Station
Airport
Location: Montreal Mirabel,
Elevation: 269 ft
Nearby Weather Stations

Elev 269 ft 45.68 °N, 74.04 °W | Updated 12 minutes ago

Overcast
Overcast
59 °F
Feels Like 59 °F
N
7
Wind Variable Wind from WSW

Today is forecast to be nearly the same temperature as yesterday.

Today
High -- | Low -- °F
--% Chance of Precip.
Yesterday
High -- | Low -- °F
Precip. -- in
5:43 AM 8:19 PM
Waning Gibbous, 68% visible
Pressure 29.84 in
Visibility 1.0 miles
Clouds Overcast 200 ft
Dew Point 57 °F
Humidity 94%
Rainfall 0.00 in
Snow Depth Not available.
UV 0 out of 12
Pollen Not available.
Air Quality Not available.
Flu Activity Not available.
SPECI CYMX 051033Z 25006KT 220V300 1SM R06/4000VP6000FT/U BR OVC002 15/14 A2983 RMK FG4SF4 SLP103 DENSITY ALT 400FT

More Conditions Fewer Conditions

Pressure 29.84 in
Visibility 1.0 miles
Clouds Overcast 200 ft
Dew Point 57 °F
Humidity 94%
Rainfall 0.00 in
Snow Depth Not available.
UV 0 out of 12
Pollen Not available.
Air Quality Not available.
Flu Activity Not available.
SPECI CYMX 051033Z 25006KT 220V300 1SM R06/4000VP6000FT/U BR OVC002 15/14 A2983 RMK FG4SF4 SLP103 DENSITY ALT 400FT

More Conditions Fewer Conditions

10-Day Weather Forecast

×

Almanac

Astronomy

Aug. 05, 2015 Rise Set
Actual Time
Civil Twilight
Nautical Twilight
Astronomical Twilight
Moon
Length of Visible Light
Length of Day
Tomorrow will be .
, % of the Moon is Illuminated

Today's Extremes

Country Highs Country Lows

Community

WunderPhotos

Upload Photos

1,844,115 photos uploaded!

WunderBlogs® & News

Nearby

Air Quality

  Air Quality AQ Index Pollutant
Not available.

Snow Depth

Station Depth Elevation

Earthquake Activity

City Distance Mag. Time & Date
Minimum magnitude displayed is 2.5.

Coastal Water Temperatures

Place Temperature

Stations

Nearby Weather Stations

Station Location Temp. Windchill Dew Point Humidity Wind Precip. Elev Updated Type